Time,TemperatureF,DewpointF,PressureIn,WindDirection,WindDirectionDegrees,WindSpeedMPH,WindSpeedGustMPH,Humidity,HourlyPrecipIn,Conditions,Clouds,dailyrainin,SoftwareType,DateUTC
2013-12-29 00:00:00,46.1,30.2,30.16,NNW,338,0.0,0.0,54,0.00,,,0.00,WUHU216HW,2013-12-29 05:00:00,
2013-12-29 00:01:00,46.1,30.2,30.16,NNW,338,0.0,0.0,54,0.00,,,0.00,WUHU216HW,2013-12-29 05:01:00,
2013-12-29 00:02:00,46.1,30.2,30.16,NNW,338,0.0,0.0,54,0.00,,,0.00,WUHU216HW,2013-12-29 05:02:00,
2013-12-29 00:07:00,46.1,30.2,30.16,NNW,338,0.0,0.0,54,0.00,,,0.00,WUHU216HW,2013-12-29 05:07:00,
2013-12-29 00:29:00,45.7,30.0,30.15,NNW,338,1.1,1.1,54,0.00,,,0.00,WUHU216HW,2013-12-29 05:29:00,
2013-12-29 00:30:00,45.7,30.0,30.15,NNW,338,1.1,1.1,54,0.00,,,0.00,WUHU216HW,2013-12-29 05:30:00,
2013-12-29 00:35:00,45.7,30.0,30.15,NNW,338,1.1,1.1,54,0.00,,,0.00,WUHU216HW,2013-12-29 05:35:00,
2013-12-29 00:59:00,45.5,30.2,30.14,North,0,0.0,0.0,55,0.00,,,0.00,WUHU216HW,2013-12-29 05:59:00,
2013-12-29 01:00:00,45.5,30.2,30.14,North,0,0.0,0.0,55,0.00,,,0.00,WUHU216HW,2013-12-29 06:00:00,
2013-12-29 01:05:00,45.5,30.2,30.14,North,0,0.0,0.0,55,0.00,,,0.00,WUHU216HW,2013-12-29 06:05:00,
2013-12-29 01:30:00,45.5,30.2,30.14,North,0,0.0,0.0,55,0.00,,,0.00,WUHU216HW,2013-12-29 06:30:00,
2013-12-29 01:35:00,45.5,30.2,30.14,North,0,0.0,0.0,55,0.00,,,0.00,WUHU216HW,2013-12-29 06:35:00,
2013-12-29 01:59:00,45.7,30.4,30.13,NNW,338,0.2,0.2,55,0.00,,,0.00,WUHU216HW,2013-12-29 06:59:00,
2013-12-29 02:00:00,45.7,30.4,30.13,NNW,338,0.2,0.2,55,0.00,,,0.00,WUHU216HW,2013-12-29 07:00:00,
2013-12-29 02:05:00,45.7,30.4,30.13,NNW,338,0.2,0.2,55,0.00,,,0.00,WUHU216HW,2013-12-29 07:05:00,
2013-12-29 02:29:00,45.9,30.6,30.12,North,0,0.0,0.0,55,0.00,,,0.00,WUHU216HW,2013-12-29 07:29:00,
2013-12-29 02:30:00,45.9,30.6,30.12,North,0,0.0,0.0,55,0.00,,,0.00,WUHU216HW,2013-12-29 07:30:00,
2013-12-29 02:35:00,45.9,30.6,30.12,North,0,0.0,0.0,55,0.00,,,0.00,WUHU216HW,2013-12-29 07:35:00,
2013-12-29 02:59:00,46.1,30.2,30.13,NNW,338,0.0,0.0,54,0.00,,,0.00,WUHU216HW,2013-12-29 07:59:00,
2013-12-29 03:00:00,46.1,30.2,30.13,NNW,338,0.0,0.0,54,0.00,,,0.00,WUHU216HW,2013-12-29 08:00:00,
2013-12-29 03:05:00,46.1,30.2,30.13,NNW,338,0.0,0.0,54,0.00,,,0.00,WUHU216HW,2013-12-29 08:05:00,
2013-12-29 03:29:00,46.8,30.5,30.13,NNE,23,1.8,1.8,53,0.00,,,0.00,WUHU216HW,2013-12-29 08:29:00,
2013-12-29 03:30:00,46.8,30.5,30.13,NNE,23,1.8,1.8,53,0.00,,,0.00,WUHU216HW,2013-12-29 08:30:00,
2013-12-29 03:35:00,46.8,30.5,30.13,NNE,23,1.8,1.8,53,0.00,,,0.00,WUHU216HW,2013-12-29 08:35:00,
2013-12-29 04:00:00,47.2,31.3,30.12,NNE,23,0.4,0.4,54,0.00,,,0.00,WUHU216HW,2013-12-29 09:00:00,
2013-12-29 04:05:00,47.2,31.3,30.12,NNE,23,0.4,0.4,54,0.00,,,0.00,WUHU216HW,2013-12-29 09:05:00,
2013-12-29 04:30:00,44.6,32.4,30.09,ENE,68,0.0,0.0,62,0.00,,,0.00,WUHU216HW,2013-12-29 09:30:00,
2013-12-29 04:35:00,44.6,32.4,30.09,ENE,68,0.0,0.0,62,0.00,,,0.00,WUHU216HW,2013-12-29 09:35:00,
2013-12-29 05:00:00,43.0,33.6,30.11,NNW,338,0.0,0.0,69,0.01,,,0.00,WUHU216HW,2013-12-29 10:00:00,
2013-12-29 05:05:00,43.0,33.6,30.11,NNW,338,0.0,0.0,69,0.01,,,0.00,WUHU216HW,2013-12-29 10:05:00,
2013-12-29 05:30:00,42.3,34.3,30.07,ENE,68,0.0,0.0,73,0.02,,,0.01,WUHU216HW,2013-12-29 10:30:00,
2013-12-29 05:35:00,42.3,34.3,30.07,ENE,68,0.0,0.0,73,0.02,,,0.01,WUHU216HW,2013-12-29 10:35:00,
2013-12-29 06:00:00,41.9,34.6,30.06,ENE,68,0.0,0.0,75,0.06,,,0.02,WUHU216HW,2013-12-29 11:00:00,
2013-12-29 06:05:00,41.9,34.6,30.06,ENE,68,0.0,0.0,75,0.06,,,0.02,WUHU216HW,2013-12-29 11:05:00,
2013-12-29 06:30:00,41.8,36.0,30.04,ENE,68,0.0,0.0,80,0.08,,,0.07,WUHU216HW,2013-12-29 11:30:00,
2013-12-29 06:35:00,41.8,36.0,30.04,ENE,68,0.0,0.0,80,0.08,,,0.07,WUHU216HW,2013-12-29 11:35:00,
2013-12-29 06:59:00,41.8,36.3,30.01,SSE,158,0.0,0.0,81,0.06,,,0.11,WUHU216HW,2013-12-29 11:59:00,
2013-12-29 07:00:00,41.8,36.3,30.01,SSE,158,0.0,0.0,81,0.06,,,0.11,WUHU216HW,2013-12-29 12:00:00,
2013-12-29 07:05:00,41.8,36.3,30.01,SSE,158,0.0,0.0,81,0.06,,,0.11,WUHU216HW,2013-12-29 12:05:00,
2013-12-29 07:29:00,41.8,36.9,30.00,SW,225,0.0,0.0,83,0.04,,,0.13,WUHU216HW,2013-12-29 12:29:00,
2013-12-29 07:30:00,41.8,36.9,30.00,SW,225,0.0,0.0,83,0.04,,,0.13,WUHU216HW,2013-12-29 12:30:00,
2013-12-29 07:35:00,41.8,36.9,30.00,SW,225,0.0,0.0,83,0.04,,,0.13,WUHU216HW,2013-12-29 12:35:00,
2013-12-29 07:59:00,41.9,37.5,29.97,SE,135,0.4,0.4,84,0.05,,,0.16,WUHU216HW,2013-12-29 12:59:00,
2013-12-29 08:00:00,41.9,37.5,29.97,SE,135,0.4,0.4,84,0.05,,,0.16,WUHU216HW,2013-12-29 13:00:00,
2013-12-29 08:05:00,41.9,37.5,29.97,SE,135,0.4,0.4,84,0.05,,,0.16,WUHU216HW,2013-12-29 13:05:00,
2013-12-29 08:29:00,41.8,37.8,29.94,SW,225,0.7,0.7,86,0.07,,,0.19,WUHU216HW,2013-12-29 13:29:00,
2013-12-29 08:30:00,41.8,37.8,29.94,SW,225,0.7,0.7,86,0.07,,,0.19,WUHU216HW,2013-12-29 13:30:00,
2013-12-29 08:35:00,41.8,37.8,29.94,SW,225,0.7,0.7,86,0.07,,,0.19,WUHU216HW,2013-12-29 13:35:00,
2013-12-29 08:59:00,42.1,38.2,29.93,South,180,0.2,0.2,86,0.13,,,0.24,WUHU216HW,2013-12-29 13:59:00,
2013-12-29 09:00:00,42.1,38.2,29.93,South,180,0.2,0.2,86,0.13,,,0.24,WUHU216HW,2013-12-29 14:00:00,
2013-12-29 09:05:00,42.1,38.2,29.93,South,180,0.2,0.2,86,0.13,,,0.24,WUHU216HW,2013-12-29 14:05:00,
2013-12-29 09:29:00,42.1,38.2,29.90,South,180,0.4,0.4,86,0.17,,,0.32,WUHU216HW,2013-12-29 14:29:00,
2013-12-29 09:30:00,42.1,38.2,29.90,South,180,0.4,0.4,86,0.17,,,0.32,WUHU216HW,2013-12-29 14:30:00,
2013-12-29 09:35:00,42.1,38.2,29.90,South,180,0.4,0.4,86,0.17,,,0.32,WUHU216HW,2013-12-29 14:35:00,
2013-12-29 09:59:00,42.5,38.9,29.86,SW,225,1.1,1.1,87,0.18,,,0.41,WUHU216HW,2013-12-29 14:59:00,
2013-12-29 10:00:00,42.5,38.9,29.86,SW,225,1.1,1.1,87,0.18,,,0.41,WUHU216HW,2013-12-29 15:00:00,
2013-12-29 10:05:00,42.5,38.9,29.86,SW,225,1.1,1.1,87,0.18,,,0.41,WUHU216HW,2013-12-29 15:05:00,
2013-12-29 10:29:00,43.7,40.4,29.82,SW,225,5.4,5.4,88,0.14,,,0.50,WUHU216HW,2013-12-29 15:29:00,
2013-12-29 10:30:00,43.7,40.4,29.82,SW,225,5.4,5.4,88,0.14,,,0.50,WUHU216HW,2013-12-29 15:30:00,
2013-12-29 10:35:00,43.7,40.4,29.82,SW,225,5.4,5.4,88,0.14,,,0.50,WUHU216HW,2013-12-29 15:35:00,
2013-12-29 10:59:00,44.3,41.3,29.77,WSW,248,0.0,0.0,89,0.16,,,0.55,WUHU216HW,2013-12-29 15:59:00,
2013-12-29 11:00:00,44.3,41.3,29.77,WSW,248,0.0,0.0,89,0.16,,,0.55,WUHU216HW,2013-12-29 16:00:00,
2013-12-29 11:05:00,44.3,41.3,29.77,WSW,248,0.0,0.0,89,0.16,,,0.55,WUHU216HW,2013-12-29 16:05:00,
2013-12-29 11:29:00,44.5,41.5,29.70,SSW,203,1.3,1.3,89,0.25,,,0.67,WUHU216HW,2013-12-29 16:29:00,
2013-12-29 11:30:00,44.5,41.5,29.70,SSW,203,1.3,1.3,89,0.25,,,0.67,WUHU216HW,2013-12-29 16:30:00,
2013-12-29 11:35:00,44.5,41.5,29.70,SSW,203,1.3,1.3,89,0.25,,,0.67,WUHU216HW,2013-12-29 16:35:00,
2013-12-29 11:59:00,45.4,42.4,29.70,South,180,1.6,1.6,89,0.30,,,0.81,WUHU216HW,2013-12-29 16:59:00,
2013-12-29 12:00:00,45.4,42.4,29.70,South,180,1.6,1.6,89,0.30,,,0.81,WUHU216HW,2013-12-29 17:00:00,
2013-12-29 12:05:00,45.4,42.4,29.70,South,180,1.6,1.6,89,0.30,,,0.81,WUHU216HW,2013-12-29 17:05:00,
2013-12-29 12:29:00,45.7,42.8,29.69,ESE,113,0.4,0.4,89,0.20,,,0.96,WUHU216HW,2013-12-29 17:29:00,
2013-12-29 12:30:00,45.7,42.8,29.69,ESE,113,0.4,0.4,89,0.20,,,0.96,WUHU216HW,2013-12-29 17:30:00,
2013-12-29 12:35:00,45.7,42.8,29.69,ESE,113,0.4,0.4,89,0.20,,,0.96,WUHU216HW,2013-12-29 17:35:00,
2013-12-29 12:59:00,45.5,42.6,29.64,East,90,1.1,1.1,89,0.15,,,1.04,WUHU216HW,2013-12-29 17:59:00,
2013-12-29 13:00:00,45.5,42.6,29.64,East,90,1.1,1.1,89,0.15,,,1.04,WUHU216HW,2013-12-29 18:00:00,
2013-12-29 13:05:00,45.5,42.6,29.64,East,90,1.1,1.1,89,0.15,,,1.04,WUHU216HW,2013-12-29 18:05:00,
2013-12-29 13:29:00,45.7,42.8,29.62,ESE,113,0.2,0.2,89,0.09,,,1.11,WUHU216HW,2013-12-29 18:29:00,
2013-12-29 13:30:00,45.7,42.8,29.62,ESE,113,0.2,0.2,89,0.09,,,1.11,WUHU216HW,2013-12-29 18:30:00,
2013-12-29 13:35:00,45.7,42.8,29.62,ESE,113,0.2,0.2,89,0.09,,,1.11,WUHU216HW,2013-12-29 18:35:00,
2013-12-29 13:59:00,46.3,43.3,29.59,ENE,68,0.7,0.7,89,0.02,,,1.13,WUHU216HW,2013-12-29 18:59:00,
2013-12-29 14:00:00,46.3,43.3,29.59,ENE,68,0.7,0.7,89,0.02,,,1.13,WUHU216HW,2013-12-29 19:00:00,
2013-12-29 14:05:00,46.3,43.3,29.59,ENE,68,0.7,0.7,89,0.02,,,1.13,WUHU216HW,2013-12-29 19:05:00,
2013-12-29 14:30:00,46.4,43.5,29.60,NE,45,0.0,0.0,89,0.00,,,1.13,WUHU216HW,2013-12-29 19:30:00,
2013-12-29 14:35:00,46.4,43.5,29.60,NE,45,0.0,0.0,89,0.00,,,1.13,WUHU216HW,2013-12-29 19:35:00,
2013-12-29 14:59:00,46.8,43.5,29.60,NNE,23,0.4,0.4,88,0.00,,,1.13,WUHU216HW,2013-12-29 19:59:00,
2013-12-29 15:00:00,46.8,43.5,29.60,NNE,23,0.4,0.4,88,0.00,,,1.13,WUHU216HW,2013-12-29 20:00:00,
2013-12-29 15:05:00,46.8,43.5,29.60,NNE,23,0.4,0.4,88,0.00,,,1.13,WUHU216HW,2013-12-29 20:05:00,
2013-12-29 15:30:00,47.0,43.7,29.60,SE,135,1.3,1.3,88,0.00,,,1.13,WUHU216HW,2013-12-29 20:30:00,
2013-12-29 15:35:00,47.0,43.7,29.60,SE,135,1.3,1.3,88,0.00,,,1.13,WUHU216HW,2013-12-29 20:35:00,
2013-12-29 15:59:00,46.8,43.5,29.62,North,0,3.6,3.6,88,0.00,,,1.13,WUHU216HW,2013-12-29 20:59:00,
2013-12-29 16:00:00,46.8,43.5,29.62,North,0,3.6,3.6,88,0.00,,,1.13,WUHU216HW,2013-12-29 21:00:00,
2013-12-29 16:05:00,46.8,43.5,29.62,North,0,3.6,3.6,88,0.00,,,1.13,WUHU216HW,2013-12-29 21:05:00,
2013-12-29 16:29:00,46.4,43.1,29.64,ENE,68,0.2,0.2,88,0.01,,,1.13,WUHU216HW,2013-12-29 21:29:00,
2013-12-29 16:30:00,46.4,43.1,29.64,ENE,68,0.2,0.2,88,0.01,,,1.13,WUHU216HW,2013-12-29 21:30:00,
2013-12-29 16:35:00,46.4,43.1,29.64,ENE,68,0.2,0.2,88,0.01,,,1.13,WUHU216HW,2013-12-29 21:35:00,
2013-12-29 16:59:00,46.1,42.8,29.66,SSE,158,0.2,0.2,88,0.01,,,1.14,WUHU216HW,2013-12-29 21:59:00,
2013-12-29 17:00:00,46.1,42.8,29.66,SSE,158,0.2,0.2,88,0.01,,,1.14,WUHU216HW,2013-12-29 22:00:00,
2013-12-29 17:05:00,46.1,42.8,29.66,SSE,158,0.2,0.2,88,0.01,,,1.14,WUHU216HW,2013-12-29 22:05:00,
2013-12-29 17:29:00,45.2,41.9,29.68,North,0,3.4,3.4,88,0.00,,,1.14,WUHU216HW,2013-12-29 22:29:00,
2013-12-29 17:30:00,45.2,41.9,29.68,North,0,3.4,3.4,88,0.00,,,1.14,WUHU216HW,2013-12-29 22:30:00,
2013-12-29 17:35:00,45.2,41.9,29.68,North,0,3.4,3.4,88,0.00,,,1.14,WUHU216HW,2013-12-29 22:35:00,
2013-12-29 18:00:00,44.5,41.1,29.70,NW,315,4.7,4.7,88,0.00,,,1.14,WUHU216HW,2013-12-29 23:00:00,
2013-12-29 18:05:00,44.5,41.1,29.70,NW,315,4.7,4.7,88,0.00,,,1.14,WUHU216HW,2013-12-29 23:05:00,
2013-12-29 18:30:00,44.8,41.5,29.72,NE,45,1.1,1.1,88,0.00,,,1.14,WUHU216HW,2013-12-29 23:30:00,
2013-12-29 18:35:00,44.8,41.5,29.72,NE,45,1.1,1.1,88,0.00,,,1.14,WUHU216HW,2013-12-29 23:35:00,
2013-12-29 18:59:00,45.4,42.4,29.75,WNW,293,2.9,2.9,89,0.00,,,1.14,WUHU216HW,2013-12-29 23:59:00,
2013-12-29 19:00:00,45.4,42.4,29.75,WNW,293,2.9,2.9,89,0.00,,,1.14,WUHU216HW,2013-12-30 00:00:00,
2013-12-29 19:05:00,45.4,42.4,29.75,WNW,293,2.9,2.9,89,0.00,,,1.14,WUHU216HW,2013-12-30 00:05:00,
2013-12-29 19:29:00,45.9,42.6,29.76,NNE,23,0.9,0.9,88,0.00,,,1.14,WUHU216HW,2013-12-30 00:29:00,
2013-12-29 19:30:00,45.9,42.6,29.76,NNE,23,0.9,0.9,88,0.00,,,1.14,WUHU216HW,2013-12-30 00:30:00,
2013-12-29 19:35:00,45.9,42.6,29.76,NNE,23,0.9,0.9,88,0.00,,,1.14,WUHU216HW,2013-12-30 00:35:00,
2013-12-29 19:59:00,46.6,42.0,29.79,North,0,1.8,1.8,84,0.00,,,1.14,WUHU216HW,2013-12-30 00:59:00,
2013-12-29 20:00:00,46.6,42.0,29.79,North,0,1.8,1.8,84,0.00,,,1.14,WUHU216HW,2013-12-30 01:00:00,
2013-12-29 20:05:00,46.6,42.0,29.79,North,0,1.8,1.8,84,0.00,,,1.14,WUHU216HW,2013-12-30 01:05:00,
2013-12-29 20:29:00,45.7,40.9,29.81,SW,225,1.1,1.1,83,0.00,,,1.14,WUHU216HW,2013-12-30 01:29:00,
2013-12-29 20:30:00,45.7,40.9,29.81,SW,225,1.1,1.1,83,0.00,,,1.14,WUHU216HW,2013-12-30 01:30:00,
2013-12-29 20:35:00,45.7,40.9,29.81,SW,225,1.1,1.1,83,0.00,,,1.14,WUHU216HW,2013-12-30 01:35:00,
2013-12-29 20:59:00,45.4,40.5,29.83,North,0,2.0,2.0,83,0.00,,,1.14,WUHU216HW,2013-12-30 01:59:00,
2013-12-29 21:00:00,45.4,40.5,29.83,North,0,2.0,2.0,83,0.00,,,1.14,WUHU216HW,2013-12-30 02:00:00,
2013-12-29 21:05:00,45.4,40.5,29.83,North,0,2.0,2.0,83,0.00,,,1.14,WUHU216HW,2013-12-30 02:05:00,
2013-12-29 21:29:00,44.8,40.0,29.84,NE,45,0.4,0.4,83,0.00,,,1.14,WUHU216HW,2013-12-30 02:29:00,
2013-12-29 21:30:00,44.8,40.0,29.84,NE,45,0.4,0.4,83,0.00,,,1.14,WUHU216HW,2013-12-30 02:30:00,
2013-12-29 21:35:00,44.8,40.0,29.84,NE,45,0.4,0.4,83,0.00,,,1.14,WUHU216HW,2013-12-30 02:35:00,
2013-12-29 21:59:00,43.7,38.9,29.85,NE,45,0.4,0.4,83,0.00,,,1.14,WUHU216HW,2013-12-30 02:59:00,
2013-12-29 22:00:00,43.7,38.9,29.85,NE,45,0.4,0.4,83,0.00,,,1.14,WUHU216HW,2013-12-30 03:00:00,
2013-12-29 22:05:00,43.7,38.9,29.85,NE,45,0.4,0.4,83,0.00,,,1.14,WUHU216HW,2013-12-30 03:05:00,
2013-12-29 22:29:00,42.3,37.8,29.85,NNW,338,0.0,0.0,84,0.00,,,1.14,WUHU216HW,2013-12-30 03:29:00,
2013-12-29 22:30:00,42.3,37.8,29.85,NNW,338,0.0,0.0,84,0.00,,,1.14,WUHU216HW,2013-12-30 03:30:00,
2013-12-29 22:35:00,42.3,37.8,29.85,NNW,338,0.0,0.0,84,0.00,,,1.14,WUHU216HW,2013-12-30 03:35:00,
2013-12-29 22:59:00,41.4,36.5,29.85,NW,315,0.0,0.0,83,0.00,,,1.14,WUHU216HW,2013-12-30 03:59:00,
2013-12-29 23:00:00,41.4,36.5,29.85,NW,315,0.0,0.0,83,0.00,,,1.14,WUHU216HW,2013-12-30 04:00:00,
2013-12-29 23:05:00,41.4,36.5,29.85,NW,315,0.0,0.0,83,0.00,,,1.14,WUHU216HW,2013-12-30 04:05:00,
2013-12-29 23:29:00,40.1,35.6,29.86,North,0,0.0,0.0,84,0.00,,,1.14,WUHU216HW,2013-12-30 04:29:00,
2013-12-29 23:30:00,40.1,35.6,29.86,North,0,0.0,0.0,84,0.00,,,1.14,WUHU216HW,2013-12-30 04:30:00,
2013-12-29 23:35:00,40.1,35.6,29.86,North,0,0.0,0.0,84,0.00,,,1.14,WUHU216HW,2013-12-30 04:35:00,
2013-12-29 23:59:00,39.4,35.3,29.88,North,0,0.2,0.2,85,0.00,,,1.14,WUHU216HW,2013-12-30 04:59:00,